createdAt,value
2022-08-25T00:00:42.650Z,71.50
2022-08-25T00:03:17.880Z,71.81
2022-08-25T00:05:52.576Z,71.66
2022-08-25T00:08:40.736Z,71.88
2022-08-25T00:11:47.052Z,71.75
2022-08-25T00:14:23.881Z,71.84
2022-08-25T00:17:00.889Z,72.04
2022-08-25T00:19:39.097Z,72.09
2022-08-25T00:22:26.836Z,71.92
2022-08-25T00:24:58.497Z,72.05
2022-08-25T00:27:40.623Z,72.32
2022-08-25T00:30:16.045Z,72.18
2022-08-25T00:33:08.751Z,72.25
2022-08-25T00:36:12.357Z,72.07
2022-08-25T00:39:05.962Z,72.27
2022-08-25T00:41:44.236Z,72.20
2022-08-25T00:44:20.533Z,72.22
2022-08-25T00:47:05.365Z,72.42
2022-08-25T00:49:51.255Z,72.36
2022-08-25T00:52:44.380Z,72.42
2022-08-25T00:55:24.673Z,72.54
2022-08-25T00:58:24.852Z,72.52
2022-08-25T01:01:11.657Z,72.33
2022-08-25T01:03:44.897Z,72.47
2022-08-25T01:06:22.691Z,72.60
2022-08-25T01:08:54.865Z,72.24
2022-08-25T01:11:32.153Z,72.52
2022-08-25T01:14:12.024Z,72.51
2022-08-25T01:16:46.526Z,72.61
2022-08-25T01:19:30.388Z,72.65
2022-08-25T01:22:08.631Z,72.52
2022-08-25T01:25:12.769Z,72.48
2022-08-25T01:27:41.783Z,72.63
2022-08-25T01:30:20.083Z,72.79
2022-08-25T01:32:59.739Z,72.45
2022-08-25T01:35:43.549Z,72.62
2022-08-25T01:38:26.931Z,72.68
2022-08-25T01:41:10.339Z,72.64
2022-08-25T01:43:42.176Z,72.54
2022-08-25T01:46:19.639Z,72.71
2022-08-25T01:48:53.599Z,72.64
2022-08-25T01:51:53.725Z,72.58
2022-08-25T01:54:25.539Z,72.47
2022-08-25T01:57:11.778Z,72.78
2022-08-25T01:59:50.025Z,72.75
2022-08-25T02:02:37.447Z,72.86
2022-08-25T02:05:14.317Z,72.62
2022-08-25T02:07:58.469Z,72.57
2022-08-25T02:10:34.634Z,72.78
2022-08-25T02:13:08.349Z,72.54
2022-08-25T02:15:54.437Z,72.73
2022-08-25T02:18:32.506Z,72.65
2022-08-25T02:21:11.751Z,72.89
2022-08-25T02:23:54.451Z,73.06
2022-08-25T02:26:26.414Z,73.01
2022-08-25T02:28:58.243Z,72.97
2022-08-25T02:31:35.870Z,73.00
2022-08-25T02:34:09.007Z,72.98
2022-08-25T02:36:49.317Z,73.01
2022-08-25T02:39:18.240Z,73.25
2022-08-25T02:41:56.275Z,73.21
2022-08-25T02:44:25.104Z,73.14
2022-08-25T02:46:56.418Z,73.28
2022-08-25T02:49:32.513Z,73.29
2022-08-25T02:52:07.423Z,73.36
2022-08-25T02:54:39.696Z,73.45
2022-08-25T02:57:16.077Z,73.46
2022-08-25T02:59:57.394Z,73.37
2022-08-25T03:02:27.478Z,73.41
2022-08-25T03:04:59.372Z,73.79
2022-08-25T03:07:55.058Z,73.53
2022-08-25T03:10:29.164Z,73.55
2022-08-25T03:13:13.422Z,73.33
2022-08-25T03:15:54.595Z,73.54
2022-08-25T03:18:34.857Z,73.61
2022-08-25T03:21:10.084Z,73.62
2022-08-25T03:23:42.705Z,73.79
2022-08-25T03:26:40.879Z,73.53
2022-08-25T03:29:19.037Z,73.61
2022-08-25T03:31:48.701Z,73.55
2022-08-25T03:34:37.277Z,73.75
2022-08-25T03:37:12.561Z,73.54
2022-08-25T03:39:49.568Z,73.50
2022-08-25T03:42:26.999Z,73.58
2022-08-25T03:44:59.461Z,73.60
2022-08-25T03:47:29.921Z,73.64
2022-08-25T03:50:01.180Z,73.69
2022-08-25T03:52:29.865Z,73.59
2022-08-25T03:55:06.128Z,73.60
2022-08-25T03:57:38.529Z,73.80
2022-08-25T04:00:29.408Z,73.62
2022-08-25T04:03:01.677Z,73.89
2022-08-25T04:05:41.424Z,73.72
2022-08-25T04:08:19.440Z,73.78
2022-08-25T04:11:08.026Z,73.56
2022-08-25T04:13:49.363Z,73.63
2022-08-25T04:16:33.254Z,73.86
2022-08-25T04:19:09.670Z,73.59
2022-08-25T04:21:50.673Z,73.73
2022-08-25T04:24:22.380Z,73.92
2022-08-25T04:26:55.102Z,73.99
2022-08-25T04:29:37.285Z,73.81
2022-08-25T04:32:23.081Z,73.74
2022-08-25T04:34:57.594Z,73.75
2022-08-25T04:37:49.321Z,73.90
2022-08-25T04:40:28.765Z,74.02
2022-08-25T04:43:16.489Z,73.82
2022-08-25T04:45:51.674Z,74.04
2022-08-25T04:48:27.859Z,73.72
2022-08-25T04:51:27.641Z,73.92
2022-08-25T04:54:16.425Z,73.99
2022-08-25T04:56:47.708Z,73.98
2022-08-25T04:59:36.028Z,74.01
2022-08-25T05:02:13.548Z,73.92
2022-08-25T05:04:53.914Z,73.96
2022-08-25T05:07:33.864Z,73.88
2022-08-25T05:10:05.718Z,73.71
2022-08-25T05:12:41.167Z,73.98
2022-08-25T05:15:36.600Z,73.83
2022-08-25T05:18:18.203Z,73.90
2022-08-25T05:20:53.797Z,73.98
2022-08-25T05:23:42.577Z,73.87
2022-08-25T05:26:28.213Z,73.94
2022-08-25T05:29:04.752Z,73.99
2022-08-25T05:31:41.746Z,73.78
2022-08-25T05:34:12.535Z,73.78
2022-08-25T05:36:44.833Z,73.83
2022-08-25T05:39:19.523Z,73.57
2022-08-25T05:41:51.086Z,73.65
2022-08-25T05:44:21.310Z,73.89
2022-08-25T05:46:52.768Z,73.84
2022-08-25T05:49:23.929Z,73.74
2022-08-25T05:51:52.515Z,73.82
2022-08-25T05:54:24.448Z,73.65
2022-08-25T05:56:58.997Z,73.70
2022-08-25T05:59:33.830Z,73.74
2022-08-25T06:02:21.275Z,73.78
2022-08-25T06:04:52.933Z,73.67
2022-08-25T06:07:24.671Z,73.75
2022-08-25T06:09:59.032Z,73.69
2022-08-25T06:12:57.271Z,73.70
2022-08-25T06:15:38.854Z,73.63
2022-08-25T06:18:17.239Z,73.69
2022-08-25T06:20:46.026Z,73.55
2022-08-25T06:23:19.526Z,73.58
2022-08-25T06:26:05.238Z,73.74
2022-08-25T06:28:37.376Z,73.57
2022-08-25T06:31:46.477Z,73.69
2022-08-25T06:34:33.015Z,73.49
2022-08-25T06:37:28.353Z,73.59
2022-08-25T06:39:59.670Z,73.68
2022-08-25T06:42:39.829Z,73.64
2022-08-25T06:45:19.680Z,73.38
2022-08-25T06:47:53.108Z,73.29
2022-08-25T06:50:50.329Z,73.33
2022-08-25T06:53:22.491Z,73.29
2022-08-25T06:56:10.389Z,73.05
2022-08-25T06:58:45.746Z,73.11
2022-08-25T07:01:47.203Z,73.15
2022-08-25T07:04:40.597Z,72.99
2022-08-25T07:07:12.965Z,72.64
2022-08-25T07:09:47.660Z,72.63
2022-08-25T07:12:30.228Z,72.69
2022-08-25T07:15:19.280Z,72.70
2022-08-25T07:18:15.712Z,72.50
2022-08-25T07:20:52.262Z,72.53
2022-08-25T07:23:48.841Z,72.34
2022-08-25T07:26:37.301Z,72.37
2022-08-25T07:29:32.725Z,72.09
2022-08-25T07:32:26.551Z,72.19
2022-08-25T07:35:24.191Z,71.69
2022-08-25T07:38:04.679Z,71.84
2022-08-25T07:41:05.189Z,71.35
2022-08-25T07:43:39.424Z,71.49
2022-08-25T07:46:19.636Z,71.65
2022-08-25T07:52:11.868Z,71.56
2022-08-25T07:54:54.203Z,71.50
2022-08-25T07:57:28.387Z,71.24
2022-08-25T08:00:03.291Z,70.90
2022-08-25T08:02:42.180Z,70.88
2022-08-25T08:05:15.432Z,70.84
2022-08-25T08:07:56.531Z,70.65
2022-08-25T08:10:53.936Z,70.54
2022-08-25T08:13:36.793Z,70.60
2022-08-25T08:16:41.303Z,70.55
2022-08-25T08:19:45.235Z,70.67
2022-08-25T08:22:18.124Z,70.63
2022-08-25T08:25:04.587Z,70.50
2022-08-25T08:27:47.236Z,70.30
2022-08-25T08:30:27.483Z,70.44
2022-08-25T08:33:10.070Z,70.31
2022-08-25T08:35:46.138Z,70.26
2022-08-25T08:38:22.092Z,70.33
2022-08-25T08:44:45.883Z,70.33
2022-08-25T08:47:55.175Z,70.51
2022-08-25T08:51:00.735Z,70.54
2022-08-25T08:54:24.241Z,70.64
2022-08-25T08:57:17.707Z,70.44
2022-08-25T08:59:50.695Z,70.45
2022-08-25T09:02:39.449Z,70.73
2022-08-25T09:05:51.988Z,70.70
2022-08-25T09:08:28.520Z,70.63
2022-08-25T09:11:16.509Z,70.80
2022-08-25T09:14:43.734Z,70.97
2022-08-25T09:17:35.663Z,71.12
2022-08-25T09:20:45.654Z,70.95
2022-08-25T09:23:47.504Z,71.27
2022-08-25T09:26:28.595Z,71.22
2022-08-25T09:29:07.068Z,71.36
2022-08-25T09:32:00.668Z,71.31
2022-08-25T09:34:54.244Z,71.36
2022-08-25T09:37:49.827Z,71.43
2022-08-25T09:40:24.914Z,71.35
2022-08-25T09:43:05.749Z,71.54
2022-08-25T09:46:07.391Z,71.42
2022-08-25T09:49:13.717Z,71.48
2022-08-25T09:52:01.081Z,71.68
2022-08-25T09:54:50.596Z,71.59
2022-08-25T09:57:37.840Z,71.56
2022-08-25T10:00:45.212Z,71.54
2022-08-25T10:03:25.195Z,71.73
2022-08-25T10:06:26.574Z,71.54
2022-08-25T10:09:07.536Z,71.52
2022-08-25T10:12:15.667Z,71.51
2022-08-25T10:15:29.768Z,71.53
2022-08-25T10:18:32.121Z,71.56
2022-08-25T10:21:25.943Z,71.47
2022-08-25T10:24:11.355Z,71.60
2022-08-25T10:26:59.889Z,71.55
2022-08-25T10:30:10.072Z,71.53
2022-08-25T10:33:04.733Z,71.42
2022-08-25T10:36:07.553Z,71.56
2022-08-25T10:39:34.204Z,71.38
2022-08-25T10:42:17.714Z,71.17
2022-08-25T10:45:31.652Z,71.17
2022-08-25T10:48:06.584Z,71.13
2022-08-25T10:51:20.566Z,71.08
2022-08-25T10:54:18.298Z,71.05
2022-08-25T10:57:01.933Z,71.06
2022-08-25T10:59:39.656Z,71.01
2022-08-25T11:02:38.527Z,70.91
2022-08-25T11:05:42.545Z,70.85
2022-08-25T11:08:25.774Z,70.62
2022-08-25T11:11:11.683Z,70.39
2022-08-25T11:13:48.740Z,70.20
2022-08-25T11:16:44.782Z,70.12
2022-08-25T11:19:30.884Z,70.14
2022-08-25T11:22:20.028Z,69.93
2022-08-25T11:25:18.741Z,70.08
2022-08-25T11:28:36.347Z,69.97
2022-08-25T11:31:17.565Z,69.72
2022-08-25T11:33:55.500Z,69.42
2022-08-25T11:36:42.303Z,69.08
2022-08-25T11:39:52.500Z,69.19
2022-08-25T11:43:20.680Z,68.90
2022-08-25T11:46:10.472Z,68.88
2022-08-25T11:49:04.619Z,68.86
2022-08-25T11:52:03.498Z,68.66
2022-08-25T11:54:55.428Z,68.73
2022-08-25T11:57:46.797Z,68.70
2022-08-25T12:00:37.495Z,68.59
2022-08-25T12:03:43.477Z,68.54
2022-08-25T12:06:31.900Z,68.76
2022-08-25T12:09:00.827Z,68.62
2022-08-25T12:11:38.790Z,68.35
2022-08-25T12:14:16.985Z,67.93
2022-08-25T12:17:18.459Z,67.62
2022-08-25T12:19:51.029Z,67.34
2022-08-25T12:22:27.074Z,67.14
2022-08-25T12:25:04.112Z,66.74
2022-08-25T12:27:38.996Z,66.41
2022-08-25T12:30:20.680Z,66.47
2022-08-25T12:33:12.418Z,66.17
2022-08-25T12:36:07.320Z,66.16
2022-08-25T12:38:53.095Z,66.24
2022-08-25T12:41:31.002Z,66.41
2022-08-25T12:44:47.226Z,66.27
2022-08-25T12:47:27.394Z,66.11
2022-08-25T12:50:33.633Z,66.22
2022-08-25T12:53:49.314Z,66.20
2022-08-25T12:56:50.052Z,66.33
2022-08-25T12:59:45.805Z,66.30
2022-08-25T13:02:26.422Z,66.44
2022-08-25T13:05:12.130Z,66.69
2022-08-25T13:08:15.568Z,66.68
2022-08-25T13:11:14.231Z,66.69
2022-08-25T13:14:18.083Z,66.75
2022-08-25T13:17:01.120Z,66.58
2022-08-25T13:19:34.764Z,66.87
2022-08-25T13:22:18.487Z,66.99
2022-08-25T13:27:41.968Z,67.16
2022-08-25T13:30:28.236Z,67.02
2022-08-25T13:33:20.544Z,67.15
2022-08-25T13:36:18.300Z,67.22
2022-08-25T13:39:04.060Z,66.90
2022-08-25T13:41:38.172Z,67.15
2022-08-25T13:44:06.757Z,66.91
2022-08-25T13:46:42.944Z,66.91
2022-08-25T13:49:26.559Z,67.02
2022-08-25T13:51:59.438Z,66.81
2022-08-25T13:55:12.463Z,66.82
2022-08-25T13:57:56.785Z,66.76
2022-08-25T14:00:53.668Z,66.64
2022-08-25T14:03:37.515Z,66.66
2022-08-25T14:06:39.477Z,66.93
2022-08-25T14:09:26.639Z,66.68
2022-08-25T14:15:26.286Z,65.98
2022-08-25T14:18:07.462Z,66.10
2022-08-25T14:20:37.723Z,65.90
2022-08-25T14:23:19.073Z,66.10
2022-08-25T14:26:10.580Z,65.91
2022-08-25T14:28:51.089Z,65.67
2022-08-25T14:31:29.123Z,65.70
2022-08-25T14:34:08.192Z,66.00
2022-08-25T14:36:51.747Z,65.70
2022-08-25T14:39:21.979Z,65.41
2022-08-25T14:42:17.136Z,65.14
2022-08-25T14:44:52.497Z,65.24
2022-08-25T14:47:24.621Z,65.20
2022-08-25T14:49:58.912Z,64.99
2022-08-25T14:52:32.614Z,64.98
2022-08-25T14:55:04.297Z,65.04
2022-08-25T14:57:52.720Z,65.19
2022-08-25T15:00:43.282Z,65.23
2022-08-25T15:03:26.238Z,65.29
2022-08-25T15:06:00.608Z,65.34
2022-08-25T15:08:48.801Z,65.27
2022-08-25T15:11:54.767Z,65.20
2022-08-25T15:14:36.379Z,65.32
2022-08-25T15:17:09.950Z,65.41
2022-08-25T15:20:17.210Z,65.48
2022-08-25T15:22:51.219Z,65.56
2022-08-25T15:25:25.671Z,65.80
2022-08-25T15:28:22.159Z,65.82
2022-08-25T15:31:03.484Z,65.94
2022-08-25T15:33:41.992Z,66.02
2022-08-25T15:36:23.311Z,65.97
2022-08-25T15:39:16.068Z,66.12
2022-08-25T15:42:02.775Z,66.24
2022-08-25T15:44:53.527Z,66.49
2022-08-25T15:47:45.584Z,66.36
2022-08-25T15:50:34.706Z,66.41
2022-08-25T15:53:12.590Z,66.60
2022-08-25T15:55:43.722Z,66.55
2022-08-25T15:58:24.157Z,66.73
2022-08-25T16:01:00.120Z,66.67
2022-08-25T16:03:29.105Z,66.73
2022-08-25T16:06:04.165Z,66.81
2022-08-25T16:08:37.432Z,66.93
2022-08-25T16:11:39.398Z,67.03
2022-08-25T16:14:15.254Z,67.08
2022-08-25T16:16:47.193Z,67.22
2022-08-25T16:19:15.977Z,67.17
2022-08-25T16:21:47.137Z,67.13
2022-08-25T16:24:16.755Z,67.27
2022-08-25T16:26:50.254Z,67.16
2022-08-25T16:29:26.404Z,67.29
2022-08-25T16:32:07.745Z,67.28
2022-08-25T16:34:40.267Z,67.52
2022-08-25T16:37:12.748Z,67.50
2022-08-25T16:39:45.811Z,67.53
2022-08-25T16:42:15.379Z,67.69
2022-08-25T16:44:47.783Z,67.88
2022-08-25T16:47:29.661Z,67.69
2022-08-25T16:50:13.342Z,67.96
2022-08-25T16:53:32.138Z,68.05
2022-08-25T16:56:08.540Z,67.81
2022-08-25T16:59:04.293Z,68.05
2022-08-25T17:01:40.074Z,68.02
2022-08-25T17:04:32.203Z,68.28
2022-08-25T17:07:09.477Z,68.06
2022-08-25T17:09:42.845Z,68.21
2022-08-25T17:12:22.417Z,68.29
2022-08-25T17:14:55.400Z,68.33
2022-08-25T17:17:27.443Z,68.43
2022-08-25T17:20:05.667Z,68.57
2022-08-25T17:22:40.243Z,68.63
2022-08-25T17:25:14.815Z,68.58
2022-08-25T17:27:54.419Z,68.64
2022-08-25T17:30:29.298Z,68.83
2022-08-25T17:33:24.033Z,68.86
2022-08-25T17:36:19.423Z,68.99
2022-08-25T17:38:54.331Z,69.10
2022-08-25T17:41:39.823Z,69.00
2022-08-25T17:44:31.193Z,69.05
2022-08-25T17:47:16.368Z,69.30
2022-08-25T17:49:59.725Z,69.39
2022-08-25T17:52:39.709Z,69.24
2022-08-25T17:55:12.076Z,69.34
2022-08-25T17:58:28.495Z,69.40
2022-08-25T18:00:58.881Z,69.60
2022-08-25T18:03:28.383Z,69.69
2022-08-25T18:05:57.171Z,69.64
2022-08-25T18:08:29.896Z,69.75
2022-08-25T18:11:04.912Z,69.77
2022-08-25T18:13:57.968Z,69.74
2022-08-25T18:16:33.146Z,69.98
2022-08-25T18:19:26.073Z,69.93
2022-08-25T18:22:23.906Z,69.83
2022-08-25T18:25:06.939Z,69.93
2022-08-25T18:27:47.196Z,69.97
2022-08-25T18:30:36.147Z,70.17
2022-08-25T18:33:10.669Z,70.29
2022-08-25T18:36:03.435Z,70.15
2022-08-25T18:38:58.208Z,70.16
2022-08-25T18:41:36.734Z,70.25
2022-08-25T18:44:06.719Z,70.25
2022-08-25T18:46:42.324Z,70.58
2022-08-25T18:49:26.920Z,70.54
2022-08-25T18:51:58.305Z,70.41
2022-08-25T18:54:47.557Z,70.54
2022-08-25T18:57:22.914Z,70.80
2022-08-25T18:59:55.054Z,70.80
2022-08-25T19:02:33.097Z,70.78
2022-08-25T19:05:10.730Z,70.79
2022-08-25T19:07:42.400Z,71.04
2022-08-25T19:10:14.949Z,71.04
2022-08-25T19:13:08.568Z,70.96
2022-08-25T19:15:59.936Z,70.91
2022-08-25T19:18:39.045Z,71.06
2022-08-25T19:21:13.497Z,71.06
2022-08-25T19:24:01.185Z,71.22
2022-08-25T19:27:07.153Z,71.35
2022-08-25T19:29:49.476Z,71.29
2022-08-25T19:32:36.081Z,71.26
2022-08-25T19:35:25.326Z,71.41
2022-08-25T19:38:00.892Z,71.49
2022-08-25T19:40:47.478Z,71.54
2022-08-25T19:43:20.053Z,71.56
2022-08-25T19:45:51.980Z,71.48
2022-08-25T19:48:38.211Z,71.81
2022-08-25T19:51:27.378Z,71.67
2022-08-25T19:54:35.183Z,71.92
2022-08-25T19:57:28.495Z,72.01
2022-08-25T20:00:32.893Z,72.00
2022-08-25T20:03:21.545Z,71.85
2022-08-25T20:06:36.250Z,71.95
2022-08-25T20:09:35.763Z,71.93
2022-08-25T20:12:06.168Z,72.01
2022-08-25T20:14:56.736Z,72.25
2022-08-25T20:17:39.228Z,72.25
2022-08-25T20:20:23.486Z,72.14
2022-08-25T20:23:16.055Z,72.34
2022-08-25T20:25:51.969Z,72.41
2022-08-25T20:28:20.751Z,72.40
2022-08-25T20:31:20.980Z,72.23
2022-08-25T20:34:00.988Z,72.49
2022-08-25T20:36:50.164Z,72.63
2022-08-25T20:39:33.950Z,72.59
2022-08-25T20:42:17.632Z,72.53
2022-08-25T20:45:15.355Z,72.51
2022-08-25T20:48:01.981Z,72.78
2022-08-25T20:50:42.627Z,72.68
2022-08-25T20:53:47.798Z,72.76
2022-08-25T20:56:36.836Z,72.69
2022-08-25T20:59:17.730Z,73.02
2022-08-25T21:01:55.708Z,72.96
2022-08-25T21:05:09.372Z,72.99
2022-08-25T21:07:44.227Z,73.04
2022-08-25T21:10:21.258Z,73.23
2022-08-25T21:13:19.148Z,73.14
2022-08-25T21:16:15.847Z,73.29
2022-08-25T21:18:51.872Z,73.26
2022-08-25T21:21:32.911Z,73.08
2022-08-25T21:24:09.873Z,73.36
2022-08-25T21:27:03.536Z,73.26
2022-08-25T21:29:44.340Z,73.42
2022-08-25T21:32:23.865Z,73.32
2022-08-25T21:35:40.233Z,73.41
2022-08-25T21:38:32.202Z,73.57
2022-08-25T21:41:19.107Z,73.61
2022-08-25T21:44:01.518Z,73.59
2022-08-25T21:46:41.554Z,73.70
2022-08-25T21:49:26.911Z,73.63
2022-08-25T21:52:09.227Z,73.90
2022-08-25T21:55:01.567Z,73.70
2022-08-25T21:57:44.168Z,73.69
2022-08-25T22:00:24.124Z,73.93
2022-08-25T22:03:38.194Z,73.82
2022-08-25T22:06:42.043Z,73.87
2022-08-25T22:10:01.187Z,74.07
2022-08-25T22:12:36.536Z,74.08
2022-08-25T22:15:36.650Z,74.13
2022-08-25T22:18:13.393Z,74.09
2022-08-25T22:21:01.085Z,74.00
2022-08-25T22:23:44.544Z,74.12
2022-08-25T22:26:39.696Z,74.13
2022-08-25T22:29:23.241Z,74.26
2022-08-25T22:32:19.256Z,74.20
2022-08-25T22:35:11.462Z,74.20
2022-08-25T22:38:27.489Z,74.31
2022-08-25T22:41:21.573Z,74.49
2022-08-25T22:43:58.426Z,74.31
2022-08-25T22:46:39.441Z,74.41
2022-08-25T22:49:22.344Z,74.58
2022-08-25T22:52:06.162Z,74.51
2022-08-25T22:54:51.868Z,74.50
2022-08-25T22:57:45.198Z,74.49
2022-08-25T23:00:38.186Z,74.61
2022-08-25T23:03:38.177Z,74.54
2022-08-25T23:06:29.305Z,74.70
2022-08-25T23:08:58.745Z,74.69
2022-08-25T23:11:30.103Z,74.50
2022-08-25T23:14:05.861Z,74.71
2022-08-25T23:16:43.460Z,74.79
2022-08-25T23:19:28.795Z,74.74
2022-08-25T23:22:11.153Z,74.65
2022-08-25T23:24:57.703Z,74.71
2022-08-25T23:27:29.665Z,74.81
2022-08-25T23:30:27.586Z,74.89
2022-08-25T23:33:04.726Z,75.07
2022-08-25T23:36:24.941Z,74.94
2022-08-25T23:39:04.634Z,74.94
2022-08-25T23:41:43.647Z,75.09
2022-08-25T23:44:43.906Z,75.30
2022-08-25T23:47:49.665Z,75.09
2022-08-25T23:50:24.687Z,75.24
2022-08-25T23:53:04.345Z,75.08
2022-08-25T23:55:56.703Z,75.38
2022-08-25T23:58:54.659Z,75.14
